TimeCDT,TemperatureF,Dew PointF,Humidity,Sea Level PressureIn,VisibilityMPH,Wind Direction,Wind SpeedMPH,Gust SpeedMPH,PrecipitationIn,Events,Conditions,WindDirDegrees,DateUTC
12:53 AM,73.0,69.1,87,30.08,10.0,Calm,Calm,-,N/A,,Clear,0,2012-10-05 05:53:00
1:53 AM,72.0,69.1,91,30.07,10.0,SE,5.8,-,N/A,,Clear,130,2012-10-05 06:53:00
2:53 AM,71.1,68.0,90,30.06,10.0,SSE,5.8,-,N/A,,Clear,150,2012-10-05 07:53:00
3:53 AM,70.0,66.9,90,30.04,10.0,SSE,5.8,-,N/A,,Clear,160,2012-10-05 08:53:00
4:53 AM,70.0,66.9,90,30.03,10.0,South,5.8,-,N/A,,Clear,170,2012-10-05 09:53:00
5:53 AM,71.1,66.9,87,30.04,10.0,ESE,3.5,-,N/A,,Clear,110,2012-10-05 10:53:00
6:53 AM,70.0,68.0,93,30.06,10.0,SE,3.5,-,N/A,,Clear,130,2012-10-05 11:53:00
7:53 AM,69.1,66.9,93,30.07,10.0,SSE,3.5,-,N/A,,Clear,150,2012-10-05 12:53:00
8:53 AM,75.9,72.0,87,30.08,10.0,SSE,3.5,-,N/A,,Clear,150,2012-10-05 13:53:00
9:53 AM,82.0,70.0,67,30.08,10.0,SSE,10.4,-,N/A,,Clear,160,2012-10-05 14:53:00
10:53 AM,84.0,68.0,58,30.09,10.0,SSE,12.7,-,N/A,,Mostly Cloudy,160,2012-10-05 15:53:00
11:53 AM,87.1,66.9,51,30.08,10.0,SE,10.4,-,N/A,,Scattered Clouds,140,2012-10-05 16:53:00
12:53 PM,88.0,64.9,46,30.05,10.0,SE,5.8,-,N/A,,Clear,130,2012-10-05 17:53:00
1:53 PM,88.0,66.0,48,30.02,10.0,SE,11.5,-,N/A,,Clear,130,2012-10-05 18:53:00
2:53 PM,89.1,64.0,43,29.99,10.0,ESE,9.2,-,N/A,,Clear,110,2012-10-05 19:53:00
3:53 PM,88.0,64.9,46,29.97,10.0,SE,12.7,-,N/A,,Clear,130,2012-10-05 20:53:00
4:53 PM,86.0,64.0,48,29.97,10.0,SE,10.4,-,N/A,,Clear,130,2012-10-05 21:53:00
5:53 PM,84.0,66.0,55,29.97,10.0,East,12.7,-,N/A,,Clear,100,2012-10-05 22:53:00
6:53 PM,81.0,66.9,62,29.98,10.0,ESE,8.1,-,N/A,,Clear,110,2012-10-05 23:53:00
7:53 PM,77.0,66.9,71,29.98,10.0,East,5.8,-,N/A,,Clear,100,2012-10-06 00:53:00
8:53 PM,73.0,66.9,81,29.99,10.0,East,4.6,-,N/A,,Clear,80,2012-10-06 01:53:00
9:53 PM,73.0,66.0,79,30.00,10.0,ESE,4.6,-,N/A,,Clear,110,2012-10-06 02:53:00
10:53 PM,72.0,66.9,84,30.00,10.0,ESE,3.5,-,N/A,,Clear,110,2012-10-06 03:53:00
11:53 PM,69.1,64.9,87,29.99,10.0,Calm,Calm,-,N/A,,Clear,0,2012-10-06 04:53:00